sensor_id;sensor_type;location;lat;lon;timestamp;P1;durP1;ratioP1;P2;durP2;ratioP2
30068;SDS011;16894;49.456;10.644;2023-04-09T00:00:35;43.87;;;35.23;;
30068;SDS011;16894;49.456;10.644;2023-04-09T00:03:00;47.87;;;36.47;;
30068;SDS011;16894;49.456;10.644;2023-04-09T00:05:26;48.90;;;35.20;;
30068;SDS011;16894;49.456;10.644;2023-04-09T00:07:52;46.15;;;35.13;;
30068;SDS011;16894;49.456;10.644;2023-04-09T00:10:18;49.33;;;34.73;;
30068;SDS011;16894;49.456;10.644;2023-04-09T00:12:43;46.72;;;35.10;;
30068;SDS011;16894;49.456;10.644;2023-04-09T00:15:09;49.92;;;37.63;;
30068;SDS011;16894;49.456;10.644;2023-04-09T00:17:35;49.47;;;34.75;;
30068;SDS011;16894;49.456;10.644;2023-04-09T00:20:01;45.70;;;32.23;;
30068;SDS011;16894;49.456;10.644;2023-04-09T00:22:26;43.33;;;32.03;;
30068;SDS011;16894;49.456;10.644;2023-04-09T00:24:52;38.37;;;30.67;;
30068;SDS011;16894;49.456;10.644;2023-04-09T00:27:17;37.50;;;25.67;;
30068;SDS011;16894;49.456;10.644;2023-04-09T00:29:43;45.78;;;28.48;;
30068;SDS011;16894;49.456;10.644;2023-04-09T00:32:09;43.58;;;28.60;;
30068;SDS011;16894;49.456;10.644;2023-04-09T00:34:35;43.33;;;25.88;;
30068;SDS011;16894;49.456;10.644;2023-04-09T00:37:01;43.38;;;27.15;;
30068;SDS011;16894;49.456;10.644;2023-04-09T00:39:26;49.72;;;28.35;;
30068;SDS011;16894;49.456;10.644;2023-04-09T00:41:56;48.37;;;25.83;;
30068;SDS011;16894;49.456;10.644;2023-04-09T00:44:23;41.78;;;23.60;;
30068;SDS011;16894;49.456;10.644;2023-04-09T00:46:49;42.75;;;24.08;;
30068;SDS011;16894;49.456;10.644;2023-04-09T00:49:15;47.75;;;24.63;;
30068;SDS011;16894;49.456;10.644;2023-04-09T00:51:41;49.25;;;26.73;;
30068;SDS011;16894;49.456;10.644;2023-04-09T00:54:08;44.20;;;25.33;;
30068;SDS011;16894;49.456;10.644;2023-04-09T00:56:35;47.72;;;26.80;;
30068;SDS011;16894;49.456;10.644;2023-04-09T00:59:02;46.78;;;26.02;;
30068;SDS011;16894;49.456;10.644;2023-04-09T01:01:28;42.22;;;23.25;;
30068;SDS011;16894;49.456;10.644;2023-04-09T01:03:53;41.97;;;23.33;;
30068;SDS011;16894;49.456;10.644;2023-04-09T01:09:35;40.83;;;23.85;;
30068;SDS011;16894;49.456;10.644;2023-04-09T01:12:23;44.10;;;25.30;;
30068;SDS011;16894;49.456;10.644;2023-04-09T01:15:06;42.55;;;24.42;;
30068;SDS011;16894;49.456;10.644;2023-04-09T01:17:37;40.42;;;22.15;;
30068;SDS011;16894;49.456;10.644;2023-04-09T01:20:11;44.25;;;23.60;;
30068;SDS011;16894;49.456;10.644;2023-04-09T01:23:06;41.55;;;22.50;;
30068;SDS011;16894;49.456;10.644;2023-04-09T01:25:58;43.10;;;22.40;;
30068;SDS011;16894;49.456;10.644;2023-04-09T01:28:41;42.95;;;22.75;;
30068;SDS011;16894;49.456;10.644;2023-04-09T01:31:13;40.88;;;23.15;;
30068;SDS011;16894;49.456;10.644;2023-04-09T01:33:42;42.10;;;23.48;;
30068;SDS011;16894;49.456;10.644;2023-04-09T01:36:09;46.58;;;24.95;;
30068;SDS011;16894;49.456;10.644;2023-04-09T01:38:35;45.17;;;23.27;;
30068;SDS011;16894;49.456;10.644;2023-04-09T01:41:04;44.53;;;23.63;;
30068;SDS011;16894;49.456;10.644;2023-04-09T01:43:31;39.80;;;22.85;;
30068;SDS011;16894;49.456;10.644;2023-04-09T01:45:59;39.20;;;22.77;;
30068;SDS011;16894;49.456;10.644;2023-04-09T01:48:27;38.88;;;22.38;;
30068;SDS011;16894;49.456;10.644;2023-04-09T01:50:54;44.03;;;23.95;;
30068;SDS011;16894;49.456;10.644;2023-04-09T01:53:20;39.90;;;21.75;;
30068;SDS011;16894;49.456;10.644;2023-04-09T01:55:46;39.78;;;22.83;;
30068;SDS011;16894;49.456;10.644;2023-04-09T01:58:12;51.37;;;25.20;;
30068;SDS011;16894;49.456;10.644;2023-04-09T02:00:39;45.35;;;24.85;;
30068;SDS011;16894;49.456;10.644;2023-04-09T02:03:17;41.90;;;23.83;;
30068;SDS011;16894;49.456;10.644;2023-04-09T02:05:50;47.45;;;25.70;;
30068;SDS011;16894;49.456;10.644;2023-04-09T02:08:25;47.58;;;25.27;;
30068;SDS011;16894;49.456;10.644;2023-04-09T02:10:55;44.92;;;25.23;;
30068;SDS011;16894;49.456;10.644;2023-04-09T02:13:23;46.92;;;24.90;;
30068;SDS011;16894;49.456;10.644;2023-04-09T02:15:51;39.30;;;24.70;;
30068;SDS011;16894;49.456;10.644;2023-04-09T02:18:19;46.55;;;26.05;;
30068;SDS011;16894;49.456;10.644;2023-04-09T02:20:46;40.97;;;24.35;;
30068;SDS011;16894;49.456;10.644;2023-04-09T02:23:12;43.83;;;25.30;;
30068;SDS011;16894;49.456;10.644;2023-04-09T02:25:39;47.42;;;26.30;;
30068;SDS011;16894;49.456;10.644;2023-04-09T02:28:05;49.80;;;26.73;;
30068;SDS011;16894;49.456;10.644;2023-04-09T02:30:30;42.33;;;26.03;;
30068;SDS011;16894;49.456;10.644;2023-04-09T02:32:56;51.13;;;27.63;;
30068;SDS011;16894;49.456;10.644;2023-04-09T02:35:21;48.47;;;25.60;;
30068;SDS011;16894;49.456;10.644;2023-04-09T02:37:47;49.53;;;25.57;;
30068;SDS011;16894;49.456;10.644;2023-04-09T02:40:13;45.70;;;25.67;;
30068;SDS011;16894;49.456;10.644;2023-04-09T02:42:38;48.27;;;28.20;;
30068;SDS011;16894;49.456;10.644;2023-04-09T02:45:04;49.43;;;27.30;;
30068;SDS011;16894;49.456;10.644;2023-04-09T02:47:30;44.00;;;25.30;;
30068;SDS011;16894;49.456;10.644;2023-04-09T02:49:56;48.13;;;26.67;;
30068;SDS011;16894;49.456;10.644;2023-04-09T02:52:22;45.15;;;25.98;;
30068;SDS011;16894;49.456;10.644;2023-04-09T02:54:49;47.97;;;27.83;;
30068;SDS011;16894;49.456;10.644;2023-04-09T02:57:14;44.35;;;25.60;;
30068;SDS011;16894;49.456;10.644;2023-04-09T02:59:40;37.10;;;24.33;;
30068;SDS011;16894;49.456;10.644;2023-04-09T03:02:06;47.42;;;25.02;;
30068;SDS011;16894;49.456;10.644;2023-04-09T03:04:32;43.80;;;26.33;;
30068;SDS011;16894;49.456;10.644;2023-04-09T03:06:57;48.20;;;25.37;;
30068;SDS011;16894;49.456;10.644;2023-04-09T03:09:23;42.43;;;25.33;;
30068;SDS011;16894;49.456;10.644;2023-04-09T03:11:49;43.83;;;26.07;;
30068;SDS011;16894;49.456;10.644;2023-04-09T03:14:14;43.07;;;24.30;;
30068;SDS011;16894;49.456;10.644;2023-04-09T03:16:40;38.77;;;22.83;;
30068;SDS011;16894;49.456;10.644;2023-04-09T03:19:06;40.03;;;22.67;;
30068;SDS011;16894;49.456;10.644;2023-04-09T03:21:31;37.97;;;22.20;;
30068;SDS011;16894;49.456;10.644;2023-04-09T03:23:57;42.28;;;23.15;;
30068;SDS011;16894;49.456;10.644;2023-04-09T03:26:23;37.77;;;22.97;;
30068;SDS011;16894;49.456;10.644;2023-04-09T03:28:48;38.70;;;24.17;;
30068;SDS011;16894;49.456;10.644;2023-04-09T03:31:14;41.60;;;23.03;;
30068;SDS011;16894;49.456;10.644;2023-04-09T03:33:40;44.40;;;25.73;;
30068;SDS011;16894;49.456;10.644;2023-04-09T03:36:06;39.03;;;24.20;;
30068;SDS011;16894;49.456;10.644;2023-04-09T03:38:31;44.30;;;22.77;;
30068;SDS011;16894;49.456;10.644;2023-04-09T03:40:57;46.30;;;24.03;;
30068;SDS011;16894;49.456;10.644;2023-04-09T03:43:23;48.77;;;26.43;;
30068;SDS011;16894;49.456;10.644;2023-04-09T03:45:48;38.17;;;23.10;;
30068;SDS011;16894;49.456;10.644;2023-04-09T03:48:14;40.97;;;24.63;;
30068;SDS011;16894;49.456;10.644;2023-04-09T03:50:40;42.00;;;26.43;;
30068;SDS011;16894;49.456;10.644;2023-04-09T03:53:06;42.50;;;27.02;;
30068;SDS011;16894;49.456;10.644;2023-04-09T03:55:32;42.13;;;24.33;;
30068;SDS011;16894;49.456;10.644;2023-04-09T03:57:57;47.63;;;27.08;;
30068;SDS011;16894;49.456;10.644;2023-04-09T04:00:23;48.25;;;29.17;;
30068;SDS011;16894;49.456;10.644;2023-04-09T04:02:49;47.03;;;28.58;;
30068;SDS011;16894;49.456;10.644;2023-04-09T04:07:41;46.50;;;28.92;;
30068;SDS011;16894;49.456;10.644;2023-04-09T04:10:08;50.95;;;29.92;;
30068;SDS011;16894;49.456;10.644;2023-04-09T04:12:34;44.42;;;27.70;;
30068;SDS011;16894;49.456;10.644;2023-04-09T04:15:00;49.57;;;28.90;;
30068;SDS011;16894;49.456;10.644;2023-04-09T04:17:26;46.88;;;27.75;;
30068;SDS011;16894;49.456;10.644;2023-04-09T04:19:52;43.63;;;27.23;;
30068;SDS011;16894;49.456;10.644;2023-04-09T04:22:17;43.60;;;25.87;;
30068;SDS011;16894;49.456;10.644;2023-04-09T04:24:43;52.87;;;29.37;;
30068;SDS011;16894;49.456;10.644;2023-04-09T04:27:08;44.63;;;28.07;;
30068;SDS011;16894;49.456;10.644;2023-04-09T04:29:34;46.80;;;29.87;;
30068;SDS011;16894;49.456;10.644;2023-04-09T04:32:01;48.13;;;27.75;;
30068;SDS011;16894;49.456;10.644;2023-04-09T04:34:27;42.53;;;27.50;;
30068;SDS011;16894;49.456;10.644;2023-04-09T04:36:52;44.70;;;29.08;;
30068;SDS011;16894;49.456;10.644;2023-04-09T04:39:18;46.97;;;31.00;;
30068;SDS011;16894;49.456;10.644;2023-04-09T04:41:44;50.80;;;32.08;;
30068;SDS011;16894;49.456;10.644;2023-04-09T04:44:10;51.67;;;34.40;;
30068;SDS011;16894;49.456;10.644;2023-04-09T04:46:35;51.70;;;30.87;;
30068;SDS011;16894;49.456;10.644;2023-04-09T04:49:01;46.87;;;30.60;;
30068;SDS011;16894;49.456;10.644;2023-04-09T04:51:29;47.08;;;28.55;;
30068;SDS011;16894;49.456;10.644;2023-04-09T04:53:55;45.75;;;31.45;;
30068;SDS011;16894;49.456;10.644;2023-04-09T04:56:21;51.77;;;31.30;;
30068;SDS011;16894;49.456;10.644;2023-04-09T04:58:47;47.00;;;29.93;;
30068;SDS011;16894;49.456;10.644;2023-04-09T05:01:12;48.07;;;31.90;;
30068;SDS011;16894;49.456;10.644;2023-04-09T05:03:38;49.50;;;30.50;;
30068;SDS011;16894;49.456;10.644;2023-04-09T05:06:04;47.03;;;32.67;;
30068;SDS011;16894;49.456;10.644;2023-04-09T05:08:29;50.20;;;30.47;;
30068;SDS011;16894;49.456;10.644;2023-04-09T05:10:55;53.08;;;34.55;;
30068;SDS011;16894;49.456;10.644;2023-04-09T05:13:21;50.95;;;31.73;;
30068;SDS011;16894;49.456;10.644;2023-04-09T05:18:13;64.40;;;41.22;;
30068;SDS011;16894;49.456;10.644;2023-04-09T05:20:39;84.50;;;50.83;;
30068;SDS011;16894;49.456;10.644;2023-04-09T05:23:05;90.82;;;53.17;;
30068;SDS011;16894;49.456;10.644;2023-04-09T05:25:30;100.57;;;60.30;;
30068;SDS011;16894;49.456;10.644;2023-04-09T05:27:56;60.33;;;41.67;;
30068;SDS011;16894;49.456;10.644;2023-04-09T05:30:22;48.13;;;32.60;;
30068;SDS011;16894;49.456;10.644;2023-04-09T05:32:47;53.00;;;34.33;;
30068;SDS011;16894;49.456;10.644;2023-04-09T05:35:13;48.27;;;33.17;;
30068;SDS011;16894;49.456;10.644;2023-04-09T05:37:39;52.93;;;34.17;;
30068;SDS011;16894;49.456;10.644;2023-04-09T05:40:04;54.67;;;35.70;;
30068;SDS011;16894;49.456;10.644;2023-04-09T05:42:30;67.25;;;42.20;;
30068;SDS011;16894;49.456;10.644;2023-04-09T05:44:56;68.70;;;40.43;;
30068;SDS011;16894;49.456;10.644;2023-04-09T05:47:22;64.07;;;41.83;;
30068;SDS011;16894;49.456;10.644;2023-04-09T05:49:48;52.10;;;34.13;;
30068;SDS011;16894;49.456;10.644;2023-04-09T05:52:14;48.23;;;32.27;;
30068;SDS011;16894;49.456;10.644;2023-04-09T05:54:40;51.00;;;34.33;;
30068;SDS011;16894;49.456;10.644;2023-04-09T05:57:06;48.97;;;34.77;;
30068;SDS011;16894;49.456;10.644;2023-04-09T05:59:32;82.07;;;46.13;;
30068;SDS011;16894;49.456;10.644;2023-04-09T06:01:58;53.70;;;33.63;;
30068;SDS011;16894;49.456;10.644;2023-04-09T06:04:23;48.87;;;31.77;;
30068;SDS011;16894;49.456;10.644;2023-04-09T06:06:49;59.57;;;32.97;;
30068;SDS011;16894;49.456;10.644;2023-04-09T06:09:15;60.97;;;33.65;;
30068;SDS011;16894;49.456;10.644;2023-04-09T06:11:41;65.50;;;37.07;;
30068;SDS011;16894;49.456;10.644;2023-04-09T06:14:07;53.20;;;33.00;;
30068;SDS011;16894;49.456;10.644;2023-04-09T06:16:32;47.40;;;30.93;;
30068;SDS011;16894;49.456;10.644;2023-04-09T06:18:58;55.08;;;31.90;;
30068;SDS011;16894;49.456;10.644;2023-04-09T06:21:24;58.83;;;33.50;;
30068;SDS011;16894;49.456;10.644;2023-04-09T06:23:50;55.45;;;34.28;;
30068;SDS011;16894;49.456;10.644;2023-04-09T06:26:17;53.60;;;31.55;;
30068;SDS011;16894;49.456;10.644;2023-04-09T06:28:43;56.15;;;35.90;;
30068;SDS011;16894;49.456;10.644;2023-04-09T06:31:08;69.07;;;40.27;;
30068;SDS011;16894;49.456;10.644;2023-04-09T06:33:34;70.65;;;40.42;;
30068;SDS011;16894;49.456;10.644;2023-04-09T06:36:00;77.37;;;41.83;;
30068;SDS011;16894;49.456;10.644;2023-04-09T06:38:25;79.82;;;42.30;;
30068;SDS011;16894;49.456;10.644;2023-04-09T06:40:51;83.13;;;45.10;;
30068;SDS011;16894;49.456;10.644;2023-04-09T06:43:17;93.83;;;48.60;;
30068;SDS011;16894;49.456;10.644;2023-04-09T06:45:42;87.17;;;45.70;;
30068;SDS011;16894;49.456;10.644;2023-04-09T06:48:08;76.87;;;42.37;;
30068;SDS011;16894;49.456;10.644;2023-04-09T06:50:34;73.78;;;42.38;;
30068;SDS011;16894;49.456;10.644;2023-04-09T06:52:59;72.23;;;39.23;;
30068;SDS011;16894;49.456;10.644;2023-04-09T06:57:52;65.38;;;36.85;;
30068;SDS011;16894;49.456;10.644;2023-04-09T07:00:17;60.25;;;35.40;;
30068;SDS011;16894;49.456;10.644;2023-04-09T07:02:43;62.67;;;39.00;;
30068;SDS011;16894;49.456;10.644;2023-04-09T07:05:09;64.47;;;38.27;;
30068;SDS011;16894;49.456;10.644;2023-04-09T07:07:34;62.53;;;39.43;;
30068;SDS011;16894;49.456;10.644;2023-04-09T07:10:00;59.65;;;40.08;;
30068;SDS011;16894;49.456;10.644;2023-04-09T07:12:27;54.50;;;36.10;;
30068;SDS011;16894;49.456;10.644;2023-04-09T07:15:00;59.38;;;37.28;;
30068;SDS011;16894;49.456;10.644;2023-04-09T07:17:27;65.05;;;42.75;;
30068;SDS011;16894;49.456;10.644;2023-04-09T07:19:54;60.17;;;40.90;;
30068;SDS011;16894;49.456;10.644;2023-04-09T07:22:21;82.67;;;54.87;;
30068;SDS011;16894;49.456;10.644;2023-04-09T07:24:47;59.80;;;38.22;;
30068;SDS011;16894;49.456;10.644;2023-04-09T07:29:49;52.95;;;33.30;;
30068;SDS011;16894;49.456;10.644;2023-04-09T07:32:15;46.90;;;28.90;;
30068;SDS011;16894;49.456;10.644;2023-04-09T07:34:42;42.83;;;27.05;;
30068;SDS011;16894;49.456;10.644;2023-04-09T07:37:08;38.05;;;23.13;;
30068;SDS011;16894;49.456;10.644;2023-04-09T07:39:34;43.57;;;27.07;;
30068;SDS011;16894;49.456;10.644;2023-04-09T07:42:03;42.27;;;25.33;;
30068;SDS011;16894;49.456;10.644;2023-04-09T07:44:32;41.63;;;27.27;;
30068;SDS011;16894;49.456;10.644;2023-04-09T07:47:02;45.75;;;26.30;;
30068;SDS011;16894;49.456;10.644;2023-04-09T07:49:29;38.28;;;23.92;;
30068;SDS011;16894;49.456;10.644;2023-04-09T07:51:55;37.00;;;22.63;;
30068;SDS011;16894;49.456;10.644;2023-04-09T07:56:47;44.40;;;28.77;;
30068;SDS011;16894;49.456;10.644;2023-04-09T07:59:13;46.33;;;29.25;;
30068;SDS011;16894;49.456;10.644;2023-04-09T08:01:42;35.30;;;26.25;;
30068;SDS011;16894;49.456;10.644;2023-04-09T08:04:08;42.38;;;31.45;;
30068;SDS011;16894;49.456;10.644;2023-04-09T08:06:34;44.05;;;38.15;;
30068;SDS011;16894;49.456;10.644;2023-04-09T08:09:03;52.97;;;47.42;;
30068;SDS011;16894;49.456;10.644;2023-04-09T08:11:30;54.40;;;49.13;;
30068;SDS011;16894;49.456;10.644;2023-04-09T08:13:56;69.45;;;63.10;;
30068;SDS011;16894;49.456;10.644;2023-04-09T08:16:22;63.92;;;58.03;;
30068;SDS011;16894;49.456;10.644;2023-04-09T08:18:48;64.68;;;59.10;;
30068;SDS011;16894;49.456;10.644;2023-04-09T08:21:15;62.22;;;56.28;;
30068;SDS011;16894;49.456;10.644;2023-04-09T08:26:07;48.67;;;43.78;;
30068;SDS011;16894;49.456;10.644;2023-04-09T08:28:32;54.10;;;39.10;;
30068;SDS011;16894;49.456;10.644;2023-04-09T08:30:58;40.60;;;29.07;;
30068;SDS011;16894;49.456;10.644;2023-04-09T08:33:24;32.07;;;21.83;;
30068;SDS011;16894;49.456;10.644;2023-04-09T08:35:50;23.30;;;16.70;;
30068;SDS011;16894;49.456;10.644;2023-04-09T08:38:17;26.13;;;17.25;;
30068;SDS011;16894;49.456;10.644;2023-04-09T08:40:43;23.83;;;15.02;;
30068;SDS011;16894;49.456;10.644;2023-04-09T08:43:09;24.38;;;17.95;;
30068;SDS011;16894;49.456;10.644;2023-04-09T08:45:40;22.08;;;14.73;;
30068;SDS011;16894;49.456;10.644;2023-04-09T08:48:08;27.05;;;18.58;;
30068;SDS011;16894;49.456;10.644;2023-04-09T08:50:35;27.48;;;18.55;;
30068;SDS011;16894;49.456;10.644;2023-04-09T08:53:01;26.92;;;18.17;;
30068;SDS011;16894;49.456;10.644;2023-04-09T08:55:29;22.48;;;15.98;;
30068;SDS011;16894;49.456;10.644;2023-04-09T08:57:55;26.67;;;16.92;;
30068;SDS011;16894;49.456;10.644;2023-04-09T09:00:22;22.85;;;15.85;;
30068;SDS011;16894;49.456;10.644;2023-04-09T09:03:01;22.35;;;15.20;;
30068;SDS011;16894;49.456;10.644;2023-04-09T09:05:44;28.02;;;18.17;;
30068;SDS011;16894;49.456;10.644;2023-04-09T09:08:21;26.17;;;17.25;;
30068;SDS011;16894;49.456;10.644;2023-04-09T09:10:48;23.30;;;15.48;;
30068;SDS011;16894;49.456;10.644;2023-04-09T09:13:21;25.73;;;16.83;;
30068;SDS011;16894;49.456;10.644;2023-04-09T09:15:48;30.92;;;18.52;;
30068;SDS011;16894;49.456;10.644;2023-04-09T09:18:18;34.35;;;22.48;;
30068;SDS011;16894;49.456;10.644;2023-04-09T09:20:44;22.30;;;14.90;;
30068;SDS011;16894;49.456;10.644;2023-04-09T09:23:09;24.20;;;16.60;;
30068;SDS011;16894;49.456;10.644;2023-04-09T09:25:38;21.67;;;15.68;;
30068;SDS011;16894;49.456;10.644;2023-04-09T09:28:05;24.20;;;17.13;;
30068;SDS011;16894;49.456;10.644;2023-04-09T09:30:33;20.02;;;14.88;;
30068;SDS011;16894;49.456;10.644;2023-04-09T09:33:04;24.42;;;16.27;;
30068;SDS011;16894;49.456;10.644;2023-04-09T09:35:50;20.50;;;15.63;;
30068;SDS011;16894;49.456;10.644;2023-04-09T09:38:18;22.87;;;16.27;;
30068;SDS011;16894;49.456;10.644;2023-04-09T09:40:45;19.42;;;14.35;;
30068;SDS011;16894;49.456;10.644;2023-04-09T09:43:12;18.90;;;13.93;;
30068;SDS011;16894;49.456;10.644;2023-04-09T09:45:38;24.08;;;16.08;;
30068;SDS011;16894;49.456;10.644;2023-04-09T09:48:05;18.05;;;13.98;;
30068;SDS011;16894;49.456;10.644;2023-04-09T09:50:31;22.13;;;15.07;;
30068;SDS011;16894;49.456;10.644;2023-04-09T09:53:05;21.63;;;15.30;;
30068;SDS011;16894;49.456;10.644;2023-04-09T09:55:32;31.17;;;19.95;;
30068;SDS011;16894;49.456;10.644;2023-04-09T09:58:02;20.50;;;17.02;;
30068;SDS011;16894;49.456;10.644;2023-04-09T10:00:41;21.25;;;16.00;;
30068;SDS011;16894;49.456;10.644;2023-04-09T10:03:30;21.60;;;16.35;;
30068;SDS011;16894;49.456;10.644;2023-04-09T10:05:57;30.92;;;24.05;;
30068;SDS011;16894;49.456;10.644;2023-04-09T10:08:25;25.75;;;20.30;;
30068;SDS011;16894;49.456;10.644;2023-04-09T10:10:52;23.73;;;19.33;;
30068;SDS011;16894;49.456;10.644;2023-04-09T10:13:19;23.92;;;18.73;;
30068;SDS011;16894;49.456;10.644;2023-04-09T10:15:50;29.35;;;23.38;;
30068;SDS011;16894;49.456;10.644;2023-04-09T10:18:16;17.55;;;15.07;;
30068;SDS011;16894;49.456;10.644;2023-04-09T10:20:45;19.92;;;16.88;;
30068;SDS011;16894;49.456;10.644;2023-04-09T10:23:21;19.92;;;17.10;;
30068;SDS011;16894;49.456;10.644;2023-04-09T10:25:55;23.73;;;17.08;;
30068;SDS011;16894;49.456;10.644;2023-04-09T10:28:20;33.05;;;22.63;;
30068;SDS011;16894;49.456;10.644;2023-04-09T10:30:47;19.38;;;16.05;;
30068;SDS011;16894;49.456;10.644;2023-04-09T10:33:13;21.45;;;16.55;;
30068;SDS011;16894;49.456;10.644;2023-04-09T10:35:41;49.08;;;31.73;;
30068;SDS011;16894;49.456;10.644;2023-04-09T10:38:12;24.63;;;19.58;;
30068;SDS011;16894;49.456;10.644;2023-04-09T10:40:49;33.70;;;19.77;;
30068;SDS011;16894;49.456;10.644;2023-04-09T10:43:18;16.90;;;14.77;;
30068;SDS011;16894;49.456;10.644;2023-04-09T10:45:45;24.65;;;18.80;;
30068;SDS011;16894;49.456;10.644;2023-04-09T10:48:17;22.48;;;16.80;;
30068;SDS011;16894;49.456;10.644;2023-04-09T10:50:44;32.97;;;20.75;;
30068;SDS011;16894;49.456;10.644;2023-04-09T10:53:23;22.45;;;16.38;;
30068;SDS011;16894;49.456;10.644;2023-04-09T10:55:51;27.92;;;19.63;;
30068;SDS011;16894;49.456;10.644;2023-04-09T10:58:17;16.98;;;14.43;;
30068;SDS011;16894;49.456;10.644;2023-04-09T11:03:24;18.75;;;14.00;;
30068;SDS011;16894;49.456;10.644;2023-04-09T11:06:05;23.92;;;17.15;;
30068;SDS011;16894;49.456;10.644;2023-04-09T11:08:34;15.82;;;14.20;;
30068;SDS011;16894;49.456;10.644;2023-04-09T11:11:02;16.85;;;14.00;;
30068;SDS011;16894;49.456;10.644;2023-04-09T11:13:28;21.00;;;16.58;;
30068;SDS011;16894;49.456;10.644;2023-04-09T11:15:56;20.52;;;16.60;;
30068;SDS011;16894;49.456;10.644;2023-04-09T11:18:24;16.25;;;13.60;;
30068;SDS011;16894;49.456;10.644;2023-04-09T11:20:57;26.42;;;19.15;;
30068;SDS011;16894;49.456;10.644;2023-04-09T11:23:25;17.98;;;15.68;;
30068;SDS011;16894;49.456;10.644;2023-04-09T11:28:17;28.85;;;19.50;;
30068;SDS011;16894;49.456;10.644;2023-04-09T11:30:44;20.98;;;16.88;;
30068;SDS011;16894;49.456;10.644;2023-04-09T11:33:13;27.23;;;18.83;;
30068;SDS011;16894;49.456;10.644;2023-04-09T11:35:39;16.77;;;14.70;;
30068;SDS011;16894;49.456;10.644;2023-04-09T11:38:05;36.00;;;21.43;;
30068;SDS011;16894;49.456;10.644;2023-04-09T11:40:41;31.85;;;22.15;;
30068;SDS011;16894;49.456;10.644;2023-04-09T11:43:12;24.20;;;19.73;;
30068;SDS011;16894;49.456;10.644;2023-04-09T11:45:39;42.63;;;26.65;;
30068;SDS011;16894;49.456;10.644;2023-04-09T11:48:05;20.45;;;17.23;;
30068;SDS011;16894;49.456;10.644;2023-04-09T11:50:31;44.22;;;26.77;;
30068;SDS011;16894;49.456;10.644;2023-04-09T11:52:57;25.08;;;19.50;;
30068;SDS011;16894;49.456;10.644;2023-04-09T11:55:24;29.10;;;19.10;;
30068;SDS011;16894;49.456;10.644;2023-04-09T11:57:51;22.92;;;18.80;;
30068;SDS011;16894;49.456;10.644;2023-04-09T12:00:19;22.13;;;18.80;;
30068;SDS011;16894;49.456;10.644;2023-04-09T12:02:48;24.50;;;18.00;;
30068;SDS011;16894;49.456;10.644;2023-04-09T12:05:25;22.95;;;18.38;;
30068;SDS011;16894;49.456;10.644;2023-04-09T12:07:56;21.88;;;16.55;;
30068;SDS011;16894;49.456;10.644;2023-04-09T12:10:32;28.23;;;23.30;;
30068;SDS011;16894;49.456;10.644;2023-04-09T12:13:00;21.48;;;16.42;;
30068;SDS011;16894;49.456;10.644;2023-04-09T12:15:29;21.38;;;18.05;;
30068;SDS011;16894;49.456;10.644;2023-04-09T12:17:57;24.58;;;19.35;;
30068;SDS011;16894;49.456;10.644;2023-04-09T12:22:56;19.75;;;16.98;;
30068;SDS011;16894;49.456;10.644;2023-04-09T12:25:24;24.05;;;18.80;;
30068;SDS011;16894;49.456;10.644;2023-04-09T12:27:50;35.03;;;25.10;;
30068;SDS011;16894;49.456;10.644;2023-04-09T12:30:16;53.33;;;31.97;;
30068;SDS011;16894;49.456;10.644;2023-04-09T12:32:41;53.37;;;32.50;;
30068;SDS011;16894;49.456;10.644;2023-04-09T12:35:09;21.88;;;19.08;;
30068;SDS011;16894;49.456;10.644;2023-04-09T12:37:35;19.17;;;17.08;;
30068;SDS011;16894;49.456;10.644;2023-04-09T12:40:01;21.13;;;18.47;;
30068;SDS011;16894;49.456;10.644;2023-04-09T12:42:27;18.27;;;14.80;;
30068;SDS011;16894;49.456;10.644;2023-04-09T12:44:53;15.63;;;13.95;;
30068;SDS011;16894;49.456;10.644;2023-04-09T12:47:19;19.87;;;17.40;;
30068;SDS011;16894;49.456;10.644;2023-04-09T12:49:44;17.10;;;15.40;;
30068;SDS011;16894;49.456;10.644;2023-04-09T12:52:10;17.95;;;16.10;;
30068;SDS011;16894;49.456;10.644;2023-04-09T12:54:36;19.17;;;16.60;;
30068;SDS011;16894;49.456;10.644;2023-04-09T12:57:04;22.15;;;16.85;;
30068;SDS011;16894;49.456;10.644;2023-04-09T12:59:30;22.40;;;17.08;;
30068;SDS011;16894;49.456;10.644;2023-04-09T13:01:56;65.93;;;32.63;;
30068;SDS011;16894;49.456;10.644;2023-04-09T13:04:21;25.50;;;18.37;;
30068;SDS011;16894;49.456;10.644;2023-04-09T13:06:47;34.33;;;20.45;;
30068;SDS011;16894;49.456;10.644;2023-04-09T13:09:13;29.17;;;20.00;;
30068;SDS011;16894;49.456;10.644;2023-04-09T13:11:38;36.53;;;24.08;;
30068;SDS011;16894;49.456;10.644;2023-04-09T13:14:04;26.42;;;18.65;;
30068;SDS011;16894;49.456;10.644;2023-04-09T13:16:30;31.38;;;21.05;;
30068;SDS011;16894;49.456;10.644;2023-04-09T13:18:57;31.17;;;21.65;;
30068;SDS011;16894;49.456;10.644;2023-04-09T13:21:23;27.10;;;18.90;;
30068;SDS011;16894;49.456;10.644;2023-04-09T13:23:48;28.45;;;20.38;;
30068;SDS011;16894;49.456;10.644;2023-04-09T13:26:14;34.20;;;25.80;;
30068;SDS011;16894;49.456;10.644;2023-04-09T13:28:40;28.23;;;20.27;;
30068;SDS011;16894;49.456;10.644;2023-04-09T13:31:06;26.13;;;19.63;;
30068;SDS011;16894;49.456;10.644;2023-04-09T13:33:31;24.80;;;18.53;;
30068;SDS011;16894;49.456;10.644;2023-04-09T13:35:57;13.60;;;12.18;;
30068;SDS011;16894;49.456;10.644;2023-04-09T13:38:23;24.88;;;17.48;;
30068;SDS011;16894;49.456;10.644;2023-04-09T13:40:48;25.73;;;17.77;;
30068;SDS011;16894;49.456;10.644;2023-04-09T13:43:14;23.02;;;15.90;;
30068;SDS011;16894;49.456;10.644;2023-04-09T13:45:40;17.80;;;15.73;;
30068;SDS011;16894;49.456;10.644;2023-04-09T13:48:05;24.97;;;18.90;;
30068;SDS011;16894;49.456;10.644;2023-04-09T13:50:31;13.97;;;12.50;;
30068;SDS011;16894;49.456;10.644;2023-04-09T13:52:57;14.55;;;12.18;;
30068;SDS011;16894;49.456;10.644;2023-04-09T13:55:23;46.55;;;32.88;;
30068;SDS011;16894;49.456;10.644;2023-04-09T13:57:49;16.85;;;13.80;;
30068;SDS011;16894;49.456;10.644;2023-04-09T14:00:15;14.80;;;13.10;;
30068;SDS011;16894;49.456;10.644;2023-04-09T14:02:41;14.32;;;12.27;;
30068;SDS011;16894;49.456;10.644;2023-04-09T14:05:07;17.63;;;13.25;;
30068;SDS011;16894;49.456;10.644;2023-04-09T14:07:33;18.08;;;13.13;;
30068;SDS011;16894;49.456;10.644;2023-04-09T14:09:58;17.65;;;13.27;;
30068;SDS011;16894;49.456;10.644;2023-04-09T14:12:24;15.40;;;13.30;;
30068;SDS011;16894;49.456;10.644;2023-04-09T14:14:50;14.25;;;12.23;;
30068;SDS011;16894;49.456;10.644;2023-04-09T14:17:16;25.88;;;19.20;;
30068;SDS011;16894;49.456;10.644;2023-04-09T14:19:41;17.73;;;13.70;;
30068;SDS011;16894;49.456;10.644;2023-04-09T14:22:07;14.55;;;11.48;;
30068;SDS011;16894;49.456;10.644;2023-04-09T14:24:34;13.63;;;9.90;;
30068;SDS011;16894;49.456;10.644;2023-04-09T14:27:07;12.18;;;9.88;;
30068;SDS011;16894;49.456;10.644;2023-04-09T14:29:33;14.88;;;12.77;;
30068;SDS011;16894;49.456;10.644;2023-04-09T14:34:25;14.00;;;8.73;;
30068;SDS011;16894;49.456;10.644;2023-04-09T14:36:53;11.25;;;9.32;;